sensor_id;sensor_type;location;lat;lon;timestamp;temperature;humidity
43673;DHT22;41723;49.326;8.430;2022-12-07T00:02:04;6.60;99.90
43673;DHT22;41723;49.326;8.430;2022-12-07T00:04:30;6.50;99.90
43673;DHT22;41723;49.326;8.430;2022-12-07T00:06:56;6.50;99.90
43673;DHT22;41723;49.326;8.430;2022-12-07T00:09:21;6.50;99.90
43673;DHT22;41723;49.326;8.430;2022-12-07T00:11:48;6.50;99.90
43673;DHT22;41723;49.326;8.430;2022-12-07T00:14:14;6.60;99.90
43673;DHT22;41723;49.326;8.430;2022-12-07T00:16:41;6.60;99.90
43673;DHT22;41723;49.326;8.430;2022-12-07T00:19:06;6.60;99.90
43673;DHT22;41723;49.326;8.430;2022-12-07T00:21:33;6.70;99.90
43673;DHT22;41723;49.326;8.430;2022-12-07T00:23:59;6.70;99.90
43673;DHT22;41723;49.326;8.430;2022-12-07T00:26:29;6.80;99.90
43673;DHT22;41723;49.326;8.430;2022-12-07T00:29:00;6.90;99.90
43673;DHT22;41723;49.326;8.430;2022-12-07T00:31:26;6.90;99.90
43673;DHT22;41723;49.326;8.430;2022-12-07T00:33:52;6.80;99.90
43673;DHT22;41723;49.326;8.430;2022-12-07T00:36:18;6.80;99.90
43673;DHT22;41723;49.326;8.430;2022-12-07T00:38:44;6.60;99.90
43673;DHT22;41723;49.326;8.430;2022-12-07T00:41:11;6.60;99.90
43673;DHT22;41723;49.326;8.430;2022-12-07T00:43:37;6.60;99.90
43673;DHT22;41723;49.326;8.430;2022-12-07T00:46:03;6.50;99.90
43673;DHT22;41723;49.326;8.430;2022-12-07T00:48:28;6.50;99.90
43673;DHT22;41723;49.326;8.430;2022-12-07T00:50:54;6.50;99.90
43673;DHT22;41723;49.326;8.430;2022-12-07T00:53:20;6.50;99.90
43673;DHT22;41723;49.326;8.430;2022-12-07T00:55:46;6.60;99.90
43673;DHT22;41723;49.326;8.430;2022-12-07T00:58:11;6.60;99.90
43673;DHT22;41723;49.326;8.430;2022-12-07T01:00:38;6.60;99.90
43673;DHT22;41723;49.326;8.430;2022-12-07T01:03:05;6.60;99.90
43673;DHT22;41723;49.326;8.430;2022-12-07T01:05:31;6.70;99.90
43673;DHT22;41723;49.326;8.430;2022-12-07T01:07:56;6.60;99.90
43673;DHT22;41723;49.326;8.430;2022-12-07T01:10:22;6.40;99.90
43673;DHT22;41723;49.326;8.430;2022-12-07T01:12:48;6.30;99.90
43673;DHT22;41723;49.326;8.430;2022-12-07T01:15:14;6.30;99.90
43673;DHT22;41723;49.326;8.430;2022-12-07T01:17:39;6.10;99.90
43673;DHT22;41723;49.326;8.430;2022-12-07T01:20:05;6.20;99.90
43673;DHT22;41723;49.326;8.430;2022-12-07T01:22:31;6.30;99.90
43673;DHT22;41723;49.326;8.430;2022-12-07T01:24:56;6.50;99.90
43673;DHT22;41723;49.326;8.430;2022-12-07T01:27:22;6.60;99.90
43673;DHT22;41723;49.326;8.430;2022-12-07T01:29:47;6.60;99.90
43673;DHT22;41723;49.326;8.430;2022-12-07T01:32:13;6.50;99.90
43673;DHT22;41723;49.326;8.430;2022-12-07T01:34:39;6.60;99.90
43673;DHT22;41723;49.326;8.430;2022-12-07T01:37:04;6.70;99.90
43673;DHT22;41723;49.326;8.430;2022-12-07T01:39:30;6.70;99.90
43673;DHT22;41723;49.326;8.430;2022-12-07T01:41:55;6.80;99.90
43673;DHT22;41723;49.326;8.430;2022-12-07T01:46:54;6.70;99.90
43673;DHT22;41723;49.326;8.430;2022-12-07T01:51:46;6.50;99.90
43673;DHT22;41723;49.326;8.430;2022-12-07T01:54:12;6.40;99.90
43673;DHT22;41723;49.326;8.430;2022-12-07T01:56:40;6.40;99.90
43673;DHT22;41723;49.326;8.430;2022-12-07T01:59:07;6.40;99.90
43673;DHT22;41723;49.326;8.430;2022-12-07T02:01:33;6.20;99.90
43673;DHT22;41723;49.326;8.430;2022-12-07T02:03:58;6.20;99.90
43673;DHT22;41723;49.326;8.430;2022-12-07T02:06:24;6.20;99.90
43673;DHT22;41723;49.326;8.430;2022-12-07T02:08:51;6.20;99.90
43673;DHT22;41723;49.326;8.430;2022-12-07T02:11:17;6.10;99.90
43673;DHT22;41723;49.326;8.430;2022-12-07T02:13:43;6.10;99.90
43673;DHT22;41723;49.326;8.430;2022-12-07T02:16:13;6.10;99.90
43673;DHT22;41723;49.326;8.430;2022-12-07T02:21:14;6.00;99.90
43673;DHT22;41723;49.326;8.430;2022-12-07T02:23:50;6.10;99.90
43673;DHT22;41723;49.326;8.430;2022-12-07T02:29:08;6.10;99.90
43673;DHT22;41723;49.326;8.430;2022-12-07T02:31:35;6.10;99.90
43673;DHT22;41723;49.326;8.430;2022-12-07T02:34:07;6.20;99.90
43673;DHT22;41723;49.326;8.430;2022-12-07T02:36:36;6.30;99.90
43673;DHT22;41723;49.326;8.430;2022-12-07T02:41:30;6.00;99.90
43673;DHT22;41723;49.326;8.430;2022-12-07T02:43:58;6.00;99.90
43673;DHT22;41723;49.326;8.430;2022-12-07T02:46:29;6.00;99.90
43673;DHT22;41723;49.326;8.430;2022-12-07T02:48:56;5.80;99.90
43673;DHT22;41723;49.326;8.430;2022-12-07T02:51:24;5.80;99.90
43673;DHT22;41723;49.326;8.430;2022-12-07T02:53:50;5.80;99.90
43673;DHT22;41723;49.326;8.430;2022-12-07T02:56:26;5.90;99.90
43673;DHT22;41723;49.326;8.430;2022-12-07T02:59:02;5.90;99.90
43673;DHT22;41723;49.326;8.430;2022-12-07T03:02:14;6.00;99.90
43673;DHT22;41723;49.326;8.430;2022-12-07T03:04:42;6.00;99.90
43673;DHT22;41723;49.326;8.430;2022-12-07T03:07:11;6.00;99.90
43673;DHT22;41723;49.326;8.430;2022-12-07T03:09:51;6.00;99.90
43673;DHT22;41723;49.326;8.430;2022-12-07T03:12:19;6.00;99.90
43673;DHT22;41723;49.326;8.430;2022-12-07T03:14:47;6.00;99.90
43673;DHT22;41723;49.326;8.430;2022-12-07T03:17:19;6.00;99.90
43673;DHT22;41723;49.326;8.430;2022-12-07T03:19:47;6.00;99.90
43673;DHT22;41723;49.326;8.430;2022-12-07T03:22:13;6.00;99.90
43673;DHT22;41723;49.326;8.430;2022-12-07T03:24:58;5.90;99.90
43673;DHT22;41723;49.326;8.430;2022-12-07T03:32:23;5.80;99.90
43673;DHT22;41723;49.326;8.430;2022-12-07T03:34:52;5.80;99.90
43673;DHT22;41723;49.326;8.430;2022-12-07T03:37:22;5.80;99.90
43673;DHT22;41723;49.326;8.430;2022-12-07T03:42:16;5.80;99.90
43673;DHT22;41723;49.326;8.430;2022-12-07T03:44:42;5.80;99.90
43673;DHT22;41723;49.326;8.430;2022-12-07T03:47:29;5.80;99.90
43673;DHT22;41723;49.326;8.430;2022-12-07T03:49:59;5.80;99.90
43673;DHT22;41723;49.326;8.430;2022-12-07T03:53:00;5.80;99.90
43673;DHT22;41723;49.326;8.430;2022-12-07T03:55:31;5.70;99.90
43673;DHT22;41723;49.326;8.430;2022-12-07T03:58:19;5.70;99.90
43673;DHT22;41723;49.326;8.430;2022-12-07T04:00:43;5.60;99.90
43673;DHT22;41723;49.326;8.430;2022-12-07T04:03:09;5.70;99.90
43673;DHT22;41723;49.326;8.430;2022-12-07T04:05:35;5.60;99.90
43673;DHT22;41723;49.326;8.430;2022-12-07T04:08:01;5.60;99.90
43673;DHT22;41723;49.326;8.430;2022-12-07T04:10:27;5.60;99.90
43673;DHT22;41723;49.326;8.430;2022-12-07T04:12:53;5.70;99.90
43673;DHT22;41723;49.326;8.430;2022-12-07T04:15:18;5.60;99.90
43673;DHT22;41723;49.326;8.430;2022-12-07T04:17:44;5.50;99.90
43673;DHT22;41723;49.326;8.430;2022-12-07T04:20:10;5.60;99.90
43673;DHT22;41723;49.326;8.430;2022-12-07T04:22:35;5.60;99.90
43673;DHT22;41723;49.326;8.430;2022-12-07T04:25:01;5.60;99.90
43673;DHT22;41723;49.326;8.430;2022-12-07T04:27:27;5.60;99.90
43673;DHT22;41723;49.326;8.430;2022-12-07T04:29:52;5.50;99.90
43673;DHT22;41723;49.326;8.430;2022-12-07T04:32:18;5.50;99.90
43673;DHT22;41723;49.326;8.430;2022-12-07T04:34:44;5.60;99.90
43673;DHT22;41723;49.326;8.430;2022-12-07T04:37:09;5.70;99.90
43673;DHT22;41723;49.326;8.430;2022-12-07T04:39:36;5.70;99.90
43673;DHT22;41723;49.326;8.430;2022-12-07T04:42:01;5.60;99.90
43673;DHT22;41723;49.326;8.430;2022-12-07T04:44:28;5.50;99.90
43673;DHT22;41723;49.326;8.430;2022-12-07T04:46:54;5.60;99.90
43673;DHT22;41723;49.326;8.430;2022-12-07T04:49:19;5.50;99.90
43673;DHT22;41723;49.326;8.430;2022-12-07T04:51:46;5.50;99.90
43673;DHT22;41723;49.326;8.430;2022-12-07T04:54:13;5.50;99.90
43673;DHT22;41723;49.326;8.430;2022-12-07T04:56:38;5.50;99.90
43673;DHT22;41723;49.326;8.430;2022-12-07T04:59:04;5.50;99.90
43673;DHT22;41723;49.326;8.430;2022-12-07T05:01:30;5.60;99.90
43673;DHT22;41723;49.326;8.430;2022-12-07T05:03:56;5.50;99.90
43673;DHT22;41723;49.326;8.430;2022-12-07T05:06:21;5.50;99.90
43673;DHT22;41723;49.326;8.430;2022-12-07T05:08:47;5.60;99.90
43673;DHT22;41723;49.326;8.430;2022-12-07T05:11:13;5.70;99.90
43673;DHT22;41723;49.326;8.430;2022-12-07T05:13:57;5.70;99.90
43673;DHT22;41723;49.326;8.430;2022-12-07T05:16:23;5.70;99.90
43673;DHT22;41723;49.326;8.430;2022-12-07T05:18:48;5.70;99.90
43673;DHT22;41723;49.326;8.430;2022-12-07T05:21:14;5.60;99.90
43673;DHT22;41723;49.326;8.430;2022-12-07T05:23:39;5.60;99.90
43673;DHT22;41723;49.326;8.430;2022-12-07T05:26:05;5.60;99.90
43673;DHT22;41723;49.326;8.430;2022-12-07T05:28:31;5.60;99.90
43673;DHT22;41723;49.326;8.430;2022-12-07T05:30:56;5.60;99.90
43673;DHT22;41723;49.326;8.430;2022-12-07T05:33:22;5.50;99.90
43673;DHT22;41723;49.326;8.430;2022-12-07T05:35:47;5.50;99.90
43673;DHT22;41723;49.326;8.430;2022-12-07T05:38:13;5.50;99.90
43673;DHT22;41723;49.326;8.430;2022-12-07T05:40:39;5.50;99.90
43673;DHT22;41723;49.326;8.430;2022-12-07T05:43:04;5.50;99.90
43673;DHT22;41723;49.326;8.430;2022-12-07T05:45:30;5.50;99.90
43673;DHT22;41723;49.326;8.430;2022-12-07T05:47:55;5.60;99.90
43673;DHT22;41723;49.326;8.430;2022-12-07T05:50:21;5.60;99.90
43673;DHT22;41723;49.326;8.430;2022-12-07T05:52:59;5.70;99.90
43673;DHT22;41723;49.326;8.430;2022-12-07T05:55:25;5.70;99.90
43673;DHT22;41723;49.326;8.430;2022-12-07T05:57:50;5.60;99.90
43673;DHT22;41723;49.326;8.430;2022-12-07T06:00:34;5.60;99.90
43673;DHT22;41723;49.326;8.430;2022-12-07T06:03:00;5.60;99.90
43673;DHT22;41723;49.326;8.430;2022-12-07T06:05:26;5.60;99.90
43673;DHT22;41723;49.326;8.430;2022-12-07T06:07:51;5.60;99.90
43673;DHT22;41723;49.326;8.430;2022-12-07T06:10:17;5.60;99.90
43673;DHT22;41723;49.326;8.430;2022-12-07T06:12:42;5.70;99.90
43673;DHT22;41723;49.326;8.430;2022-12-07T06:15:11;5.70;99.90
43673;DHT22;41723;49.326;8.430;2022-12-07T06:17:38;5.80;99.90
43673;DHT22;41723;49.326;8.430;2022-12-07T06:20:04;5.70;99.90
43673;DHT22;41723;49.326;8.430;2022-12-07T06:22:29;5.90;99.90
43673;DHT22;41723;49.326;8.430;2022-12-07T06:24:55;5.90;99.90
43673;DHT22;41723;49.326;8.430;2022-12-07T06:27:21;5.90;99.90
43673;DHT22;41723;49.326;8.430;2022-12-07T06:29:46;6.00;99.90
43673;DHT22;41723;49.326;8.430;2022-12-07T06:32:12;6.00;99.90
43673;DHT22;41723;49.326;8.430;2022-12-07T06:34:38;6.00;99.90
43673;DHT22;41723;49.326;8.430;2022-12-07T06:37:04;6.00;99.90
43673;DHT22;41723;49.326;8.430;2022-12-07T06:39:30;6.00;99.90
43673;DHT22;41723;49.326;8.430;2022-12-07T06:41:56;6.00;99.90
43673;DHT22;41723;49.326;8.430;2022-12-07T06:44:22;6.00;99.90
43673;DHT22;41723;49.326;8.430;2022-12-07T06:46:48;6.00;99.90
43673;DHT22;41723;49.326;8.430;2022-12-07T06:49:13;6.00;99.90
43673;DHT22;41723;49.326;8.430;2022-12-07T06:51:39;6.00;99.90
43673;DHT22;41723;49.326;8.430;2022-12-07T06:54:11;6.10;99.90
43673;DHT22;41723;49.326;8.430;2022-12-07T06:56:37;6.10;99.90
43673;DHT22;41723;49.326;8.430;2022-12-07T06:59:03;6.00;99.90
43673;DHT22;41723;49.326;8.430;2022-12-07T07:01:30;5.90;99.90
43673;DHT22;41723;49.326;8.430;2022-12-07T07:03:56;6.00;99.90
43673;DHT22;41723;49.326;8.430;2022-12-07T07:06:21;5.90;99.90
43673;DHT22;41723;49.326;8.430;2022-12-07T07:08:47;5.90;99.90
43673;DHT22;41723;49.326;8.430;2022-12-07T07:11:12;5.90;99.90
43673;DHT22;41723;49.326;8.430;2022-12-07T07:13:38;5.90;99.90
43673;DHT22;41723;49.326;8.430;2022-12-07T07:16:04;5.80;99.90
43673;DHT22;41723;49.326;8.430;2022-12-07T07:18:30;5.90;99.90
43673;DHT22;41723;49.326;8.430;2022-12-07T07:20:56;5.90;99.90
43673;DHT22;41723;49.326;8.430;2022-12-07T07:23:22;5.90;99.90
43673;DHT22;41723;49.326;8.430;2022-12-07T07:25:48;5.90;99.90
43673;DHT22;41723;49.326;8.430;2022-12-07T07:28:13;5.90;99.90
43673;DHT22;41723;49.326;8.430;2022-12-07T07:30:39;6.00;99.90
43673;DHT22;41723;49.326;8.430;2022-12-07T07:33:05;6.20;99.90
43673;DHT22;41723;49.326;8.430;2022-12-07T07:35:31;6.10;99.90
43673;DHT22;41723;49.326;8.430;2022-12-07T07:37:57;6.10;99.90
43673;DHT22;41723;49.326;8.430;2022-12-07T07:40:24;5.90;99.90
43673;DHT22;41723;49.326;8.430;2022-12-07T07:42:50;6.10;99.90
43673;DHT22;41723;49.326;8.430;2022-12-07T07:45:17;6.10;99.90
43673;DHT22;41723;49.326;8.430;2022-12-07T07:47:42;6.10;99.90
43673;DHT22;41723;49.326;8.430;2022-12-07T07:50:08;6.10;99.90
43673;DHT22;41723;49.326;8.430;2022-12-07T07:52:34;6.10;99.90
43673;DHT22;41723;49.326;8.430;2022-12-07T07:54:59;6.10;99.90
43673;DHT22;41723;49.326;8.430;2022-12-07T07:57:25;6.10;99.90
43673;DHT22;41723;49.326;8.430;2022-12-07T07:59:51;6.20;99.90
43673;DHT22;41723;49.326;8.430;2022-12-07T08:02:17;6.20;99.90
43673;DHT22;41723;49.326;8.430;2022-12-07T08:04:44;6.20;99.90
43673;DHT22;41723;49.326;8.430;2022-12-07T08:07:10;6.10;99.90
43673;DHT22;41723;49.326;8.430;2022-12-07T08:09:36;6.10;99.90
43673;DHT22;41723;49.326;8.430;2022-12-07T08:12:01;6.20;99.90
43673;DHT22;41723;49.326;8.430;2022-12-07T08:14:27;6.20;99.90
43673;DHT22;41723;49.326;8.430;2022-12-07T08:16:54;6.20;99.90
43673;DHT22;41723;49.326;8.430;2022-12-07T08:19:20;6.20;99.90
43673;DHT22;41723;49.326;8.430;2022-12-07T08:21:45;6.20;99.90
43673;DHT22;41723;49.326;8.430;2022-12-07T08:24:11;6.20;99.90
43673;DHT22;41723;49.326;8.430;2022-12-07T08:26:37;6.20;99.90
43673;DHT22;41723;49.326;8.430;2022-12-07T08:29:02;6.10;99.90
43673;DHT22;41723;49.326;8.430;2022-12-07T08:31:28;6.10;99.90
43673;DHT22;41723;49.326;8.430;2022-12-07T08:33:54;6.10;99.90
43673;DHT22;41723;49.326;8.430;2022-12-07T08:36:20;6.10;99.90
43673;DHT22;41723;49.326;8.430;2022-12-07T08:38:47;6.00;99.90
43673;DHT22;41723;49.326;8.430;2022-12-07T08:41:14;6.10;99.90
43673;DHT22;41723;49.326;8.430;2022-12-07T08:43:40;6.10;99.90
43673;DHT22;41723;49.326;8.430;2022-12-07T08:46:08;6.10;99.90
43673;DHT22;41723;49.326;8.430;2022-12-07T08:48:36;6.10;99.90
43673;DHT22;41723;49.326;8.430;2022-12-07T08:51:02;6.10;99.90
43673;DHT22;41723;49.326;8.430;2022-12-07T08:53:28;6.10;99.90
43673;DHT22;41723;49.326;8.430;2022-12-07T08:55:54;6.00;99.90
43673;DHT22;41723;49.326;8.430;2022-12-07T08:58:20;6.00;99.90
43673;DHT22;41723;49.326;8.430;2022-12-07T09:00:46;6.00;99.90
43673;DHT22;41723;49.326;8.430;2022-12-07T09:03:11;6.10;99.90
43673;DHT22;41723;49.326;8.430;2022-12-07T09:05:37;6.10;99.90
43673;DHT22;41723;49.326;8.430;2022-12-07T09:08:03;6.10;99.90
43673;DHT22;41723;49.326;8.430;2022-12-07T09:10:28;6.10;99.90
43673;DHT22;41723;49.326;8.430;2022-12-07T09:12:54;6.20;99.90
43673;DHT22;41723;49.326;8.430;2022-12-07T09:15:20;6.20;99.90
43673;DHT22;41723;49.326;8.430;2022-12-07T09:17:46;6.20;99.90
43673;DHT22;41723;49.326;8.430;2022-12-07T09:20:12;6.20;99.90
43673;DHT22;41723;49.326;8.430;2022-12-07T09:22:38;6.20;99.90
43673;DHT22;41723;49.326;8.430;2022-12-07T09:25:03;6.10;99.90
43673;DHT22;41723;49.326;8.430;2022-12-07T09:27:29;6.10;99.90
43673;DHT22;41723;49.326;8.430;2022-12-07T09:29:55;6.10;99.90
43673;DHT22;41723;49.326;8.430;2022-12-07T09:32:20;6.20;99.90
43673;DHT22;41723;49.326;8.430;2022-12-07T09:34:46;6.00;99.90
43673;DHT22;41723;49.326;8.430;2022-12-07T09:37:12;6.10;99.90
43673;DHT22;41723;49.326;8.430;2022-12-07T09:39:38;6.10;99.90
43673;DHT22;41723;49.326;8.430;2022-12-07T09:42:03;6.20;99.90
43673;DHT22;41723;49.326;8.430;2022-12-07T09:44:29;6.20;99.90
43673;DHT22;41723;49.326;8.430;2022-12-07T09:46:55;6.30;99.90
43673;DHT22;41723;49.326;8.430;2022-12-07T09:49:23;6.30;99.90
43673;DHT22;41723;49.326;8.430;2022-12-07T09:54:27;6.40;99.90
43673;DHT22;41723;49.326;8.430;2022-12-07T09:56:54;6.40;99.90
43673;DHT22;41723;49.326;8.430;2022-12-07T09:59:19;6.40;99.90
43673;DHT22;41723;49.326;8.430;2022-12-07T10:01:46;6.40;99.90
43673;DHT22;41723;49.326;8.430;2022-12-07T10:04:17;6.60;99.90
43673;DHT22;41723;49.326;8.430;2022-12-07T10:06:43;6.50;99.90
43673;DHT22;41723;49.326;8.430;2022-12-07T10:09:10;6.50;99.90
43673;DHT22;41723;49.326;8.430;2022-12-07T10:11:43;6.60;99.90
43673;DHT22;41723;49.326;8.430;2022-12-07T10:14:21;6.60;99.90
43673;DHT22;41723;49.326;8.430;2022-12-07T10:16:46;6.50;99.90
43673;DHT22;41723;49.326;8.430;2022-12-07T10:19:26;6.60;99.90
43673;DHT22;41723;49.326;8.430;2022-12-07T10:24:27;6.70;99.90
43673;DHT22;41723;49.326;8.430;2022-12-07T10:26:53;6.70;99.90
43673;DHT22;41723;49.326;8.430;2022-12-07T10:31:55;6.90;99.90
43673;DHT22;41723;49.326;8.430;2022-12-07T10:34:23;6.90;99.90
43673;DHT22;41723;49.326;8.430;2022-12-07T10:36:53;7.00;99.90
43673;DHT22;41723;49.326;8.430;2022-12-07T10:39:22;7.00;99.90
43673;DHT22;41723;49.326;8.430;2022-12-07T10:41:59;7.00;99.90
43673;DHT22;41723;49.326;8.430;2022-12-07T10:44:31;7.00;99.90
43673;DHT22;41723;49.326;8.430;2022-12-07T10:52:03;7.00;99.90
43673;DHT22;41723;49.326;8.430;2022-12-07T10:59:59;7.10;99.90
43673;DHT22;41723;49.326;8.430;2022-12-07T11:07:20;7.30;99.90
43673;DHT22;41723;49.326;8.430;2022-12-07T11:25:32;7.60;99.90
43673;DHT22;41723;49.326;8.430;2022-12-07T11:33:20;7.60;99.90
43673;DHT22;41723;49.326;8.430;2022-12-07T11:38:21;7.40;99.90
43673;DHT22;41723;49.326;8.430;2022-12-07T11:40:51;7.40;99.90
43673;DHT22;41723;49.326;8.430;2022-12-07T11:43:24;7.40;99.90
43673;DHT22;41723;49.326;8.430;2022-12-07T11:45:54;7.30;99.90
43673;DHT22;41723;49.326;8.430;2022-12-07T11:50:56;7.30;99.90
43673;DHT22;41723;49.326;8.430;2022-12-07T11:53:25;7.40;99.90
43673;DHT22;41723;49.326;8.430;2022-12-07T12:00:48;7.10;99.90
43673;DHT22;41723;49.326;8.430;2022-12-07T12:03:15;7.30;99.90
43673;DHT22;41723;49.326;8.430;2022-12-07T12:05:45;7.40;99.90
43673;DHT22;41723;49.326;8.430;2022-12-07T12:08:16;7.40;99.90
43673;DHT22;41723;49.326;8.430;2022-12-07T12:13:24;7.10;99.90
43673;DHT22;41723;49.326;8.430;2022-12-07T12:18:43;7.40;99.90
43673;DHT22;41723;49.326;8.430;2022-12-07T12:21:12;7.50;99.90
43673;DHT22;41723;49.326;8.430;2022-12-07T12:26:08;7.60;99.90
43673;DHT22;41723;49.326;8.430;2022-12-07T12:31:05;7.30;99.90
43673;DHT22;41723;49.326;8.430;2022-12-07T12:33:31;7.30;99.90
43673;DHT22;41723;49.326;8.430;2022-12-07T12:44:00;7.20;99.90
43673;DHT22;41723;49.326;8.430;2022-12-07T12:49:41;7.40;99.90
43673;DHT22;41723;49.326;8.430;2022-12-07T12:51:42;7.40;99.90
43673;DHT22;41723;49.326;8.430;2022-12-07T12:54:14;7.50;99.90
43673;DHT22;41723;49.326;8.430;2022-12-07T12:57:27;7.50;99.90
43673;DHT22;41723;49.326;8.430;2022-12-07T13:01:54;7.60;99.90
43673;DHT22;41723;49.326;8.430;2022-12-07T13:04:23;7.60;99.90
43673;DHT22;41723;49.326;8.430;2022-12-07T13:06:53;7.60;99.90
43673;DHT22;41723;49.326;8.430;2022-12-07T13:09:20;7.70;99.90
43673;DHT22;41723;49.326;8.430;2022-12-07T13:11:47;7.80;99.90
43673;DHT22;41723;49.326;8.430;2022-12-07T13:17:12;7.80;99.90
43673;DHT22;41723;49.326;8.430;2022-12-07T13:20:39;7.90;99.90
43673;DHT22;41723;49.326;8.430;2022-12-07T13:22:49;7.90;99.90
43673;DHT22;41723;49.326;8.430;2022-12-07T13:27:43;7.90;99.90
43673;DHT22;41723;49.326;8.430;2022-12-07T13:30:16;7.90;99.90
43673;DHT22;41723;49.326;8.430;2022-12-07T13:32:42;7.70;99.90
43673;DHT22;41723;49.326;8.430;2022-12-07T13:35:28;7.70;99.90
43673;DHT22;41723;49.326;8.430;2022-12-07T13:37:54;7.70;99.90
43673;DHT22;41723;49.326;8.430;2022-12-07T13:40:20;7.60;99.90
43673;DHT22;41723;49.326;8.430;2022-12-07T13:42:46;7.40;99.90
43673;DHT22;41723;49.326;8.430;2022-12-07T13:47:54;7.30;99.90
43673;DHT22;41723;49.326;8.430;2022-12-07T13:50:28;7.40;99.90
43673;DHT22;41723;49.326;8.430;2022-12-07T13:52:58;7.40;99.90
43673;DHT22;41723;49.326;8.430;2022-12-07T13:55:24;7.50;99.90
43673;DHT22;41723;49.326;8.430;2022-12-07T13:57:50;7.50;99.90
43673;DHT22;41723;49.326;8.430;2022-12-07T14:00:18;7.60;99.90
43673;DHT22;41723;49.326;8.430;2022-12-07T14:03:45;7.50;99.90
43673;DHT22;41723;49.326;8.430;2022-12-07T14:05:40;7.50;99.90
43673;DHT22;41723;49.326;8.430;2022-12-07T14:08:22;7.60;99.90
43673;DHT22;41723;49.326;8.430;2022-12-07T14:13:27;7.60;99.90
43673;DHT22;41723;49.326;8.430;2022-12-07T14:15:54;7.60;99.90
43673;DHT22;41723;49.326;8.430;2022-12-07T14:21:05;7.30;99.90
43673;DHT22;41723;49.326;8.430;2022-12-07T14:23:31;7.30;99.90
43673;DHT22;41723;49.326;8.430;2022-12-07T14:26:18;7.20;99.90
43673;DHT22;41723;49.326;8.430;2022-12-07T14:28:44;7.20;99.90
43673;DHT22;41723;49.326;8.430;2022-12-07T14:31:14;7.10;99.90
43673;DHT22;41723;49.326;8.430;2022-12-07T14:33:40;7.20;99.90
43673;DHT22;41723;49.326;8.430;2022-12-07T14:36:13;7.10;99.90
43673;DHT22;41723;49.326;8.430;2022-12-07T14:38:38;7.10;99.90
43673;DHT22;41723;49.326;8.430;2022-12-07T14:41:06;7.20;99.90
43673;DHT22;41723;49.326;8.430;2022-12-07T14:43:54;7.10;99.90
43673;DHT22;41723;49.326;8.430;2022-12-07T14:46:20;7.20;99.90
43673;DHT22;41723;49.326;8.430;2022-12-07T14:48:45;7.10;99.90
43673;DHT22;41723;49.326;8.430;2022-12-07T14:51:11;7.20;99.90
43673;DHT22;41723;49.326;8.430;2022-12-07T14:53:41;7.20;99.90
43673;DHT22;41723;49.326;8.430;2022-12-07T14:56:08;7.20;99.90
43673;DHT22;41723;49.326;8.430;2022-12-07T14:58:34;7.30;99.90
43673;DHT22;41723;49.326;8.430;2022-12-07T15:01:00;7.20;99.90
43673;DHT22;41723;49.326;8.430;2022-12-07T15:03:25;7.30;99.90
43673;DHT22;41723;49.326;8.430;2022-12-07T15:05:51;7.10;99.90
43673;DHT22;41723;49.326;8.430;2022-12-07T15:08:16;7.10;99.90
43673;DHT22;41723;49.326;8.430;2022-12-07T15:10:43;7.10;99.90
43673;DHT22;41723;49.326;8.430;2022-12-07T15:13:09;7.00;99.90
43673;DHT22;41723;49.326;8.430;2022-12-07T15:15:53;6.90;99.90
43673;DHT22;41723;49.326;8.430;2022-12-07T15:18:20;6.90;99.90
43673;DHT22;41723;49.326;8.430;2022-12-07T15:20:46;6.90;99.90
43673;DHT22;41723;49.326;8.430;2022-12-07T15:23:12;6.90;99.90
43673;DHT22;41723;49.326;8.430;2022-12-07T15:25:41;6.90;99.90
43673;DHT22;41723;49.326;8.430;2022-12-07T15:28:07;6.80;99.90
43673;DHT22;41723;49.326;8.430;2022-12-07T15:30:33;6.70;99.90
43673;DHT22;41723;49.326;8.430;2022-12-07T15:32:59;6.80;99.90
43673;DHT22;41723;49.326;8.430;2022-12-07T15:35:24;6.80;99.90
43673;DHT22;41723;49.326;8.430;2022-12-07T15:37:50;6.70;99.90
43673;DHT22;41723;49.326;8.430;2022-12-07T15:40:15;6.70;99.90
43673;DHT22;41723;49.326;8.430;2022-12-07T15:42:41;6.70;99.90
43673;DHT22;41723;49.326;8.430;2022-12-07T15:45:07;6.60;99.90
43673;DHT22;41723;49.326;8.430;2022-12-07T15:47:33;6.60;99.90
43673;DHT22;41723;49.326;8.430;2022-12-07T15:50:02;6.70;99.90
43673;DHT22;41723;49.326;8.430;2022-12-07T15:52:28;6.60;99.90
43673;DHT22;41723;49.326;8.430;2022-12-07T15:54:53;6.50;99.90
43673;DHT22;41723;49.326;8.430;2022-12-07T15:57:19;6.60;99.90
43673;DHT22;41723;49.326;8.430;2022-12-07T15:59:45;6.60;99.90
43673;DHT22;41723;49.326;8.430;2022-12-07T16:02:10;6.60;99.90
43673;DHT22;41723;49.326;8.430;2022-12-07T16:04:36;6.50;99.90
43673;DHT22;41723;49.326;8.430;2022-12-07T16:07:02;6.50;99.90
43673;DHT22;41723;49.326;8.430;2022-12-07T16:09:27;6.40;99.90
43673;DHT22;41723;49.326;8.430;2022-12-07T16:11:53;6.50;99.90
43673;DHT22;41723;49.326;8.430;2022-12-07T16:14:18;6.50;99.90
43673;DHT22;41723;49.326;8.430;2022-12-07T16:16:44;6.50;99.90
43673;DHT22;41723;49.326;8.430;2022-12-07T16:19:10;6.50;99.90
43673;DHT22;41723;49.326;8.430;2022-12-07T16:21:36;6.40;99.90
43673;DHT22;41723;49.326;8.430;2022-12-07T16:24:02;6.50;99.90
43673;DHT22;41723;49.326;8.430;2022-12-07T16:26:27;6.40;99.90
43673;DHT22;41723;49.326;8.430;2022-12-07T16:28:53;6.40;99.90
43673;DHT22;41723;49.326;8.430;2022-12-07T16:31:21;6.30;99.90
43673;DHT22;41723;49.326;8.430;2022-12-07T16:33:48;6.30;99.90
43673;DHT22;41723;49.326;8.430;2022-12-07T16:36:14;6.30;99.90
43673;DHT22;41723;49.326;8.430;2022-12-07T16:38:41;6.30;99.90
43673;DHT22;41723;49.326;8.430;2022-12-07T16:41:07;6.20;99.90
43673;DHT22;41723;49.326;8.430;2022-12-07T16:43:33;6.20;99.90
43673;DHT22;41723;49.326;8.430;2022-12-07T16:45:59;6.20;99.90
43673;DHT22;41723;49.326;8.430;2022-12-07T16:48:25;6.20;99.90
43673;DHT22;41723;49.326;8.430;2022-12-07T16:50:50;6.20;99.90
43673;DHT22;41723;49.326;8.430;2022-12-07T16:53:19;6.20;99.90
43673;DHT22;41723;49.326;8.430;2022-12-07T16:55:44;6.30;99.90
43673;DHT22;41723;49.326;8.430;2022-12-07T16:58:14;6.20;99.90
43673;DHT22;41723;49.326;8.430;2022-12-07T17:00:41;6.20;99.90
43673;DHT22;41723;49.326;8.430;2022-12-07T17:03:07;6.20;99.90
43673;DHT22;41723;49.326;8.430;2022-12-07T17:05:36;6.30;99.90
43673;DHT22;41723;49.326;8.430;2022-12-07T17:08:02;6.20;99.90
43673;DHT22;41723;49.326;8.430;2022-12-07T17:10:28;6.20;99.90
43673;DHT22;41723;49.326;8.430;2022-12-07T17:12:54;6.20;99.90
43673;DHT22;41723;49.326;8.430;2022-12-07T17:15:19;6.20;99.90
43673;DHT22;41723;49.326;8.430;2022-12-07T17:17:52;6.20;99.90
43673;DHT22;41723;49.326;8.430;2022-12-07T17:20:18;6.20;99.90
43673;DHT22;41723;49.326;8.430;2022-12-07T17:22:45;6.20;99.90
43673;DHT22;41723;49.326;8.430;2022-12-07T17:25:10;6.10;99.90
43673;DHT22;41723;49.326;8.430;2022-12-07T17:27:36;6.00;99.90
43673;DHT22;41723;49.326;8.430;2022-12-07T17:30:05;6.00;99.90
43673;DHT22;41723;49.326;8.430;2022-12-07T17:32:31;6.00;99.90
43673;DHT22;41723;49.326;8.430;2022-12-07T17:34:57;6.00;99.90
43673;DHT22;41723;49.326;8.430;2022-12-07T17:37:22;6.00;99.90
43673;DHT22;41723;49.326;8.430;2022-12-07T17:39:48;5.90;99.90